Aviation Digital Data Service (ADDS)

Output produced by TAFs form (1328 UTC 30 September 2016)
found at http://www.aviationweather.gov/adds/tafs/
 
KABE 301137Z 3012/0112 05011G18KT P6SM -RA OVC025 
     TEMPO 3012/3016 2SM RADZ BR OVC009 
     FM010200 07011KT P6SM OVC009